createdAt,value
2023-05-22T00:00:21.658Z,77
2023-05-22T00:01:28.276Z,77
2023-05-22T00:02:35.444Z,77
2023-05-22T00:03:42.438Z,77
2023-05-22T00:04:49.611Z,77
2023-05-22T00:07:03.267Z,77
2023-05-22T00:08:10.381Z,77
2023-05-22T00:09:17.471Z,77
2023-05-22T00:10:24.596Z,77
2023-05-22T00:11:31.674Z,77
2023-05-22T00:17:06.848Z,78
2023-05-22T00:18:13.308Z,78
2023-05-22T00:19:20.536Z,78
2023-05-22T00:20:27.501Z,78
2023-05-22T00:21:34.606Z,78
2023-05-22T00:22:41.154Z,78
2023-05-22T00:23:48.300Z,78
2023-05-22T00:24:55.934Z,78
2023-05-22T00:26:02.482Z,78
2023-05-22T00:27:09.597Z,79
2023-05-22T00:28:16.729Z,79
2023-05-22T00:29:23.287Z,79
2023-05-22T00:30:30.376Z,79
2023-05-22T00:31:37.529Z,79
2023-05-22T00:32:44.701Z,79
2023-05-22T00:33:51.298Z,79
2023-05-22T00:34:58.295Z,79
2023-05-22T00:36:05.451Z,79
2023-05-22T00:37:12.522Z,79
2023-05-22T00:38:19.613Z,79
2023-05-22T00:39:26.224Z,79
2023-05-22T00:40:33.286Z,79
2023-05-22T00:41:40.359Z,79
2023-05-22T00:42:47.506Z,79
2023-05-22T00:43:54.617Z,79
2023-05-22T00:45:01.198Z,79
2023-05-22T00:46:10.946Z,79
2023-05-22T00:47:15.418Z,79
2023-05-22T00:48:22.786Z,79
2023-05-22T00:49:29.700Z,79
2023-05-22T00:50:36.420Z,79
2023-05-22T00:51:43.334Z,79
2023-05-22T00:52:50.454Z,80
2023-05-22T00:53:57.517Z,80
2023-05-22T00:55:04.629Z,80
2023-05-22T00:56:11.212Z,80
2023-05-22T00:57:18.305Z,80
2023-05-22T00:58:25.478Z,80
2023-05-22T00:59:32.508Z,80
2023-05-22T01:00:39.988Z,80
2023-05-22T01:01:46.302Z,80
2023-05-22T01:04:01.446Z,80
2023-05-22T01:05:07.539Z,80
2023-05-22T01:06:14.634Z,80
2023-05-22T01:07:21.248Z,80
2023-05-22T01:08:28.348Z,80
2023-05-22T01:10:42.742Z,80
2023-05-22T01:11:49.683Z,80
2023-05-22T01:12:56.240Z,80
2023-05-22T01:14:03.339Z,81
2023-05-22T01:15:10.426Z,81
2023-05-22T01:16:17.570Z,81
2023-05-22T01:17:24.690Z,81
2023-05-22T01:18:31.281Z,81
2023-05-22T01:19:38.365Z,81
2023-05-22T01:20:46.593Z,81
2023-05-22T01:21:52.516Z,81
2023-05-22T01:22:59.662Z,81
2023-05-22T01:24:06.250Z,81
2023-05-22T01:25:13.323Z,81
2023-05-22T01:26:20.452Z,81
2023-05-22T01:27:27.568Z,81
2023-05-22T01:28:35.162Z,81
2023-05-22T01:29:41.274Z,81
2023-05-22T01:30:48.377Z,81
2023-05-22T01:31:55.429Z,81
2023-05-22T01:33:02.659Z,81
2023-05-22T01:34:09.732Z,81
2023-05-22T01:35:16.322Z,81
2023-05-22T01:36:23.424Z,81
2023-05-22T01:37:30.486Z,81
2023-05-22T01:38:37.621Z,81
2023-05-22T01:39:45.204Z,81
2023-05-22T01:40:51.294Z,82
2023-05-22T01:41:58.334Z,81
2023-05-22T01:43:05.489Z,82
2023-05-22T01:44:12.549Z,82
2023-05-22T01:45:19.178Z,82
2023-05-22T01:46:26.378Z,82
2023-05-22T01:47:33.407Z,82
2023-05-22T01:48:40.513Z,82
2023-05-22T01:49:47.642Z,82
2023-05-22T01:50:54.187Z,82
2023-05-22T01:52:01.249Z,82
2023-05-22T01:53:08.425Z,82
2023-05-22T01:54:15.540Z,82
2023-05-22T01:55:22.588Z,82
2023-05-22T01:56:29.201Z,82
2023-05-22T01:57:36.315Z,82
2023-05-22T01:58:43.373Z,82
2023-05-22T01:59:50.480Z,82
2023-05-22T02:00:57.681Z,82
2023-05-22T02:02:04.230Z,82
2023-05-22T02:03:11.400Z,82
2023-05-22T02:04:18.478Z,82
2023-05-22T02:05:25.585Z,82
2023-05-22T02:06:32.605Z,82
2023-05-22T02:07:39.248Z,82
2023-05-22T02:08:46.350Z,82
2023-05-22T02:09:53.390Z,82
2023-05-22T02:11:00.522Z,82
2023-05-22T02:12:07.658Z,82
2023-05-22T02:14:21.315Z,82
2023-05-22T02:15:28.431Z,82
2023-05-22T02:16:35.632Z,82
2023-05-22T02:17:42.708Z,82
2023-05-22T02:18:49.324Z,82
2023-05-22T02:19:56.293Z,82
2023-05-22T02:21:03.466Z,82
2023-05-22T02:22:10.545Z,82
2023-05-22T02:23:17.629Z,82
2023-05-22T02:24:24.243Z,82
2023-05-22T02:25:31.296Z,82
2023-05-22T02:26:38.460Z,82
2023-05-22T02:27:45.654Z,82
2023-05-22T02:28:52.649Z,82
2023-05-22T02:29:59.194Z,82
2023-05-22T02:32:13.960Z,82
2023-05-22T02:33:20.522Z,82
2023-05-22T02:34:27.694Z,82
2023-05-22T02:35:34.216Z,82
2023-05-22T02:36:41.344Z,82
2023-05-22T02:37:48.418Z,82
2023-05-22T02:38:55.735Z,82
2023-05-22T02:40:02.661Z,82
2023-05-22T02:41:09.310Z,82
2023-05-22T02:42:16.424Z,82
2023-05-22T02:43:23.445Z,82
2023-05-22T02:44:30.531Z,82
2023-05-22T02:45:37.109Z,82
2023-05-22T02:46:44.283Z,82
2023-05-22T02:47:51.339Z,82
2023-05-22T02:48:58.586Z,82
2023-05-22T02:50:05.596Z,82
2023-05-22T02:51:12.131Z,83
2023-05-22T02:52:19.275Z,82
2023-05-22T02:53:26.372Z,82
2023-05-22T02:54:33.474Z,82
2023-05-22T02:55:40.551Z,82
2023-05-22T02:56:47.164Z,83
2023-05-22T02:57:54.277Z,82
2023-05-22T02:59:01.348Z,82
2023-05-22T03:00:08.474Z,82
2023-05-22T03:01:15.665Z,82
2023-05-22T03:02:22.685Z,82
2023-05-22T03:03:29.424Z,82
2023-05-22T03:04:36.459Z,82
2023-05-22T03:05:43.490Z,82
2023-05-22T03:06:50.596Z,83
2023-05-22T03:07:58.218Z,82
2023-05-22T03:09:04.250Z,82
2023-05-22T03:10:11.368Z,82
2023-05-22T03:11:18.581Z,82
2023-05-22T03:12:25.619Z,82
2023-05-22T03:13:32.159Z,82
2023-05-22T03:14:39.286Z,83
2023-05-22T03:15:46.422Z,83
2023-05-22T03:18:00.697Z,82
2023-05-22T03:19:07.470Z,83
2023-05-22T03:20:14.297Z,83
2023-05-22T03:21:21.406Z,83
2023-05-22T03:22:28.526Z,83
2023-05-22T03:23:35.589Z,83
2023-05-22T03:24:42.202Z,83
2023-05-22T03:25:49.337Z,83
2023-05-22T03:26:56.427Z,83
2023-05-22T03:28:03.512Z,83
2023-05-22T03:29:10.652Z,83
2023-05-22T03:30:17.299Z,83
2023-05-22T03:31:24.294Z,83
2023-05-22T03:32:31.453Z,83
2023-05-22T03:33:38.550Z,83
2023-05-22T03:34:45.724Z,83
2023-05-22T03:35:52.765Z,83
2023-05-22T03:36:59.341Z,83
2023-05-22T03:38:06.448Z,83
2023-05-22T03:39:13.533Z,83
2023-05-22T03:40:20.713Z,83
2023-05-22T03:41:27.378Z,83
2023-05-22T03:42:34.338Z,83
2023-05-22T03:43:43.484Z,83
2023-05-22T03:44:48.576Z,83
2023-05-22T03:45:55.699Z,83
2023-05-22T03:47:02.220Z,84
2023-05-22T03:48:09.384Z,84
2023-05-22T03:49:16.488Z,84
2023-05-22T03:50:23.531Z,84
2023-05-22T03:51:30.629Z,84
2023-05-22T03:52:37.272Z,84
2023-05-22T03:53:44.329Z,84
2023-05-22T03:54:51.449Z,84
2023-05-22T03:55:58.595Z,84
2023-05-22T03:57:05.674Z,84
2023-05-22T03:58:12.234Z,84
2023-05-22T04:00:27.154Z,84
2023-05-22T04:01:33.580Z,84
2023-05-22T04:02:40.793Z,84
2023-05-22T04:03:47.292Z,84
2023-05-22T04:04:54.480Z,84
2023-05-22T04:06:01.450Z,84
2023-05-22T04:07:08.576Z,84
2023-05-22T04:08:15.697Z,84
2023-05-22T04:09:22.239Z,84
2023-05-22T04:10:29.419Z,84
2023-05-22T04:11:36.469Z,84
2023-05-22T04:12:43.619Z,84
2023-05-22T04:13:50.176Z,84
2023-05-22T04:14:57.331Z,84
2023-05-22T04:16:04.376Z,84
2023-05-22T04:17:11.442Z,84
2023-05-22T04:18:18.616Z,84
2023-05-22T04:19:25.336Z,84
2023-05-22T04:21:39.429Z,84
2023-05-22T04:22:46.537Z,84
2023-05-22T04:23:53.567Z,84
2023-05-22T04:25:00.255Z,84
2023-05-22T04:26:07.322Z,84
2023-05-22T04:27:14.425Z,84
2023-05-22T04:28:21.501Z,84
2023-05-22T04:29:28.659Z,84
2023-05-22T04:30:35.218Z,84
2023-05-22T04:31:42.441Z,84
2023-05-22T04:32:49.462Z,84
2023-05-22T04:33:56.646Z,84
2023-05-22T04:35:03.607Z,84
2023-05-22T04:36:12.333Z,83
2023-05-22T04:37:17.316Z,83
2023-05-22T04:38:24.386Z,83
2023-05-22T04:39:32.091Z,83
2023-05-22T04:40:38.970Z,83
2023-05-22T04:41:45.238Z,83
2023-05-22T04:42:52.370Z,83
2023-05-22T04:43:59.447Z,83
2023-05-22T04:45:06.558Z,83
2023-05-22T04:46:13.636Z,83
2023-05-22T04:47:20.769Z,83
2023-05-22T04:48:27.364Z,83
2023-05-22T04:49:34.408Z,83
2023-05-22T04:50:41.845Z,83
2023-05-22T04:51:48.677Z,83
2023-05-22T04:52:55.259Z,83
2023-05-22T04:54:02.404Z,83
2023-05-22T04:55:09.462Z,83
2023-05-22T04:56:21.409Z,83
2023-05-22T04:57:23.651Z,83
2023-05-22T04:58:30.267Z,83
2023-05-22T04:59:37.413Z,83
2023-05-22T05:00:44.515Z,83
2023-05-22T05:01:51.523Z,83
2023-05-22T05:02:58.803Z,83
2023-05-22T05:04:05.313Z,83
2023-05-22T05:05:12.302Z,82
2023-05-22T05:06:19.449Z,82
2023-05-22T05:07:26.625Z,82
2023-05-22T05:08:33.655Z,82
2023-05-22T05:09:40.292Z,82
2023-05-22T05:10:47.354Z,82
2023-05-22T05:11:54.507Z,82
2023-05-22T05:13:01.559Z,82
2023-05-22T05:14:08.722Z,82
2023-05-22T05:15:15.253Z,82
2023-05-22T05:16:22.352Z,82
2023-05-22T05:17:29.496Z,82
2023-05-22T05:18:36.571Z,82
2023-05-22T05:19:43.669Z,82
2023-05-22T05:20:50.248Z,81
2023-05-22T05:21:57.406Z,81
2023-05-22T05:23:04.443Z,81
2023-05-22T05:24:11.595Z,81
2023-05-22T05:25:18.204Z,81
2023-05-22T05:26:25.319Z,81
2023-05-22T05:28:39.486Z,81
2023-05-22T05:29:46.629Z,81
2023-05-22T05:30:53.184Z,81
2023-05-22T05:32:00.335Z,81
2023-05-22T05:33:07.409Z,81
2023-05-22T05:34:14.453Z,81
2023-05-22T05:35:21.552Z,81
2023-05-22T05:36:28.178Z,81
2023-05-22T05:37:35.303Z,81
2023-05-22T05:38:42.387Z,81
2023-05-22T05:39:49.554Z,81
2023-05-22T05:40:56.597Z,81
2023-05-22T05:42:03.188Z,81
2023-05-22T05:43:10.787Z,81
2023-05-22T05:44:17.445Z,81
2023-05-22T05:45:24.463Z,81
2023-05-22T05:46:31.695Z,81
2023-05-22T05:47:38.351Z,80
2023-05-22T05:48:45.311Z,80
2023-05-22T05:49:52.394Z,80
2023-05-22T05:50:59.518Z,80
2023-05-22T05:52:06.608Z,81
2023-05-22T05:53:13.186Z,81
2023-05-22T05:54:20.367Z,80
2023-05-22T05:55:27.464Z,80
2023-05-22T05:56:34.508Z,80
2023-05-22T05:57:41.606Z,80
2023-05-22T05:58:48.224Z,80
2023-05-22T05:59:55.329Z,80
2023-05-22T06:01:02.395Z,80
2023-05-22T06:02:09.581Z,80
2023-05-22T06:03:16.859Z,80
2023-05-22T06:04:23.718Z,80
2023-05-22T06:05:30.389Z,80
2023-05-22T06:06:37.436Z,80
2023-05-22T06:07:44.525Z,80
2023-05-22T06:08:51.608Z,80
2023-05-22T06:09:58.254Z,80
2023-05-22T06:11:05.338Z,80
2023-05-22T06:12:12.411Z,80
2023-05-22T06:13:19.537Z,80
2023-05-22T06:14:26.634Z,80
2023-05-22T06:15:33.186Z,80
2023-05-22T06:16:40.668Z,80
2023-05-22T06:17:47.476Z,80
2023-05-22T06:18:54.617Z,80
2023-05-22T06:20:01.624Z,80
2023-05-22T06:21:08.266Z,80
2023-05-22T06:22:15.343Z,80
2023-05-22T06:23:22.442Z,80
2023-05-22T06:24:29.634Z,80
2023-05-22T06:25:36.657Z,80
2023-05-22T06:26:43.212Z,80
2023-05-22T06:28:57.465Z,80
2023-05-22T06:30:04.990Z,80
2023-05-22T06:31:11.693Z,80
2023-05-22T06:32:18.302Z,80
2023-05-22T06:33:25.398Z,80
2023-05-22T06:34:32.467Z,80
2023-05-22T06:35:39.589Z,80
2023-05-22T06:36:46.139Z,80
2023-05-22T06:37:53.275Z,80
2023-05-22T06:39:00.373Z,80
2023-05-22T06:40:07.524Z,80
2023-05-22T06:41:14.595Z,80
2023-05-22T06:42:21.131Z,80
2023-05-22T06:43:28.291Z,80
2023-05-22T06:44:35.435Z,80
2023-05-22T06:45:42.499Z,80
2023-05-22T06:46:50.122Z,80
2023-05-22T06:47:56.138Z,80
2023-05-22T06:49:03.321Z,80
2023-05-22T06:50:10.431Z,79
2023-05-22T06:51:17.538Z,79
2023-05-22T06:52:24.577Z,79
2023-05-22T06:53:31.177Z,79
2023-05-22T06:54:38.296Z,79
2023-05-22T06:56:52.481Z,79
2023-05-22T06:57:59.609Z,79
2023-05-22T06:59:06.496Z,79
2023-05-22T07:00:13.259Z,79
2023-05-22T07:01:20.400Z,79
2023-05-22T07:02:27.564Z,79
2023-05-22T07:03:34.672Z,79
2023-05-22T07:04:41.208Z,79
2023-05-22T07:05:48.380Z,79
2023-05-22T07:06:55.397Z,79
2023-05-22T07:08:02.545Z,79
2023-05-22T07:09:09.624Z,79
2023-05-22T07:10:16.251Z,79
2023-05-22T07:11:23.317Z,79
2023-05-22T07:12:30.407Z,79
2023-05-22T07:13:37.547Z,79
2023-05-22T07:14:44.661Z,79
2023-05-22T07:15:51.167Z,79
2023-05-22T07:16:58.466Z,79
2023-05-22T07:18:05.497Z,79
2023-05-22T07:19:12.567Z,79
2023-05-22T07:20:19.732Z,79
2023-05-22T07:21:26.251Z,79
2023-05-22T07:22:33.333Z,79
2023-05-22T07:23:40.392Z,79
2023-05-22T07:24:47.565Z,79
2023-05-22T07:25:54.625Z,79
2023-05-22T07:27:01.220Z,79
2023-05-22T07:28:08.334Z,79
2023-05-22T07:29:15.442Z,79
2023-05-22T07:30:22.547Z,79
2023-05-22T07:32:36.807Z,79
2023-05-22T07:33:43.314Z,79
2023-05-22T07:34:50.478Z,78
2023-05-22T07:35:57.526Z,78
2023-05-22T07:37:04.701Z,79
2023-05-22T07:38:11.218Z,79
2023-05-22T07:39:18.364Z,79
2023-05-22T07:40:26.535Z,78
2023-05-22T07:41:32.526Z,78
2023-05-22T07:42:39.690Z,78
2023-05-22T07:43:46.271Z,78
2023-05-22T07:44:53.346Z,78
2023-05-22T07:46:00.462Z,78
2023-05-22T07:47:07.557Z,78
2023-05-22T07:48:14.169Z,78
2023-05-22T07:49:21.361Z,78
2023-05-22T07:50:28.945Z,78
2023-05-22T07:51:35.457Z,78
2023-05-22T07:52:42.551Z,78
2023-05-22T07:53:49.165Z,78
2023-05-22T07:54:56.265Z,78
2023-05-22T07:56:03.365Z,78
2023-05-22T07:57:10.498Z,77
2023-05-22T07:58:17.592Z,77
2023-05-22T07:59:24.195Z,77
2023-05-22T08:00:31.304Z,77
2023-05-22T08:01:38.381Z,77
2023-05-22T08:02:45.539Z,76
2023-05-22T08:03:52.965Z,76
2023-05-22T08:04:59.306Z,76
2023-05-22T08:06:06.282Z,76
2023-05-22T08:07:13.376Z,75
2023-05-22T08:08:20.502Z,75
2023-05-22T08:09:27.680Z,75
2023-05-22T08:10:52.124Z,75
2023-05-22T08:11:41.264Z,75
2023-05-22T08:12:48.347Z,75
2023-05-22T08:13:55.503Z,75
2023-05-22T08:15:02.622Z,75
2023-05-22T08:16:11.134Z,74
2023-05-22T08:17:16.358Z,74
2023-05-22T08:18:23.364Z,73
2023-05-22T08:19:30.535Z,74
2023-05-22T08:20:37.875Z,74
2023-05-22T08:21:44.176Z,73
2023-05-22T08:22:52.310Z,73
2023-05-22T08:25:05.543Z,73
2023-05-22T08:26:12.654Z,73
2023-05-22T08:27:19.227Z,72
2023-05-22T08:28:26.314Z,72
2023-05-22T08:29:33.433Z,72
2023-05-22T08:30:40.738Z,72
2023-05-22T08:31:47.676Z,71
2023-05-22T08:32:54.233Z,71
2023-05-22T08:34:01.339Z,71
2023-05-22T08:36:15.528Z,71
2023-05-22T08:37:22.599Z,70
2023-05-22T08:38:29.213Z,70
2023-05-22T08:39:36.340Z,70
2023-05-22T08:40:46.060Z,69
2023-05-22T08:41:50.536Z,69
2023-05-22T08:42:57.148Z,69
2023-05-22T08:44:04.180Z,69
2023-05-22T08:45:11.439Z,69
2023-05-22T08:46:18.485Z,69
2023-05-22T08:47:25.552Z,69
2023-05-22T08:48:32.118Z,68
2023-05-22T08:49:39.246Z,69
2023-05-22T08:50:46.362Z,69
2023-05-22T08:51:53.420Z,68
2023-05-22T08:53:00.543Z,68
2023-05-22T08:54:08.175Z,68
2023-05-22T08:55:14.205Z,68
2023-05-22T08:56:21.316Z,68
2023-05-22T08:57:28.451Z,68
2023-05-22T08:58:35.565Z,68
2023-05-22T08:59:42.181Z,68
2023-05-22T09:00:49.848Z,68
2023-05-22T09:01:56.367Z,67
2023-05-22T09:03:03.534Z,66
2023-05-22T09:04:10.634Z,66
2023-05-22T09:05:17.219Z,66
2023-05-22T09:06:24.247Z,66
2023-05-22T09:07:31.340Z,66
2023-05-22T09:08:38.484Z,66
2023-05-22T09:09:45.589Z,66
2023-05-22T09:10:52.134Z,66
2023-05-22T09:11:59.234Z,66
2023-05-22T09:13:06.406Z,66
2023-05-22T09:14:13.497Z,66
2023-05-22T09:15:20.592Z,66
2023-05-22T09:16:27.244Z,66
2023-05-22T09:17:34.251Z,66
2023-05-22T09:18:41.376Z,67
2023-05-22T09:19:48.545Z,67
2023-05-22T09:20:55.618Z,67
2023-05-22T09:22:02.213Z,66
2023-05-22T09:23:09.321Z,67
2023-05-22T09:24:16.384Z,67
2023-05-22T09:25:23.482Z,67
2023-05-22T09:26:30.580Z,66
2023-05-22T09:27:37.194Z,67
2023-05-22T09:28:44.262Z,67
2023-05-22T09:29:51.432Z,67
2023-05-22T09:30:58.537Z,66
2023-05-22T09:32:05.605Z,66
2023-05-22T09:33:12.361Z,66
2023-05-22T09:34:19.367Z,66
2023-05-22T09:35:26.428Z,66
2023-05-22T09:36:33.487Z,66
2023-05-22T09:37:40.633Z,66
2023-05-22T09:38:47.208Z,66
2023-05-22T09:39:54.293Z,66
2023-05-22T09:41:01.373Z,66
2023-05-22T09:42:08.526Z,66
2023-05-22T09:43:15.096Z,65
2023-05-22T09:44:22.169Z,65
2023-05-22T09:45:29.359Z,65
2023-05-22T09:46:36.585Z,65
2023-05-22T09:47:43.612Z,65
2023-05-22T09:48:50.072Z,65
2023-05-22T09:49:57.234Z,65
2023-05-22T09:51:04.276Z,65
2023-05-22T09:53:18.565Z,65
2023-05-22T09:54:25.133Z,65
2023-05-22T09:55:32.301Z,65
2023-05-22T09:56:40.255Z,66
2023-05-22T09:57:46.968Z,66
2023-05-22T09:58:53.507Z,66
2023-05-22T10:00:00.238Z,66
2023-05-22T10:01:07.289Z,66
2023-05-22T10:02:14.312Z,66
2023-05-22T10:03:21.422Z,66
2023-05-22T10:04:28.628Z,67
2023-05-22T10:05:35.210Z,66
2023-05-22T10:06:42.271Z,66
2023-05-22T10:07:49.382Z,66
2023-05-22T10:08:56.486Z,66
2023-05-22T10:10:03.607Z,66
2023-05-22T10:11:10.177Z,66
2023-05-22T10:12:17.244Z,66
2023-05-22T10:13:24.332Z,66
2023-05-22T10:14:31.460Z,66
2023-05-22T10:15:38.620Z,66
2023-05-22T10:16:45.142Z,66
2023-05-22T10:17:52.321Z,66
2023-05-22T10:18:59.367Z,67
2023-05-22T10:20:06.476Z,67
2023-05-22T10:21:13.640Z,67
2023-05-22T10:22:20.149Z,67
2023-05-22T10:23:27.281Z,67
2023-05-22T10:24:34.326Z,67
2023-05-22T10:25:41.479Z,67
2023-05-22T10:26:48.595Z,67
2023-05-22T10:27:55.187Z,67
2023-05-22T10:29:02.788Z,67
2023-05-22T10:30:09.431Z,67
2023-05-22T10:31:16.535Z,67
2023-05-22T10:32:23.670Z,67
2023-05-22T10:33:30.223Z,67
2023-05-22T10:34:37.303Z,67
2023-05-22T10:35:44.362Z,67
2023-05-22T10:36:52.239Z,67
2023-05-22T10:37:58.595Z,67
2023-05-22T10:39:05.177Z,67
2023-05-22T10:40:12.289Z,67
2023-05-22T10:41:19.381Z,67
2023-05-22T10:43:33.595Z,67
2023-05-22T10:44:40.213Z,81
2023-05-22T10:45:47.387Z,67
2023-05-22T10:46:54.447Z,67
2023-05-22T10:48:01.529Z,67
2023-05-22T10:49:08.633Z,67
2023-05-22T10:50:15.185Z,67
2023-05-22T10:51:22.258Z,67
2023-05-22T10:52:29.435Z,67
2023-05-22T10:53:36.552Z,67
2023-05-22T10:54:43.062Z,67
2023-05-22T10:55:50.251Z,67
2023-05-22T10:56:57.267Z,66
2023-05-22T10:58:05.110Z,66
2023-05-22T10:59:11.509Z,67
2023-05-22T11:00:18.148Z,67
2023-05-22T11:01:25.754Z,66
2023-05-22T11:02:32.397Z,67
2023-05-22T11:03:39.454Z,66
2023-05-22T11:04:46.679Z,66
2023-05-22T11:05:53.073Z,67
2023-05-22T11:07:00.249Z,67
2023-05-22T11:08:07.329Z,67
2023-05-22T11:09:14.399Z,67
2023-05-22T11:10:21.495Z,67
2023-05-22T11:11:28.192Z,67
2023-05-22T11:12:35.387Z,67
2023-05-22T11:13:42.299Z,66
2023-05-22T11:14:49.493Z,67
2023-05-22T11:15:56.576Z,67
2023-05-22T11:17:03.114Z,67
2023-05-22T11:18:10.381Z,67
2023-05-22T11:21:31.592Z,66
2023-05-22T11:22:38.168Z,66
2023-05-22T11:23:45.250Z,66
2023-05-22T11:24:52.371Z,66
2023-05-22T11:25:59.452Z,67
2023-05-22T11:27:06.575Z,67
2023-05-22T11:28:13.098Z,67
2023-05-22T11:29:20.275Z,67
2023-05-22T11:30:27.330Z,67
2023-05-22T11:31:34.482Z,67
2023-05-22T11:32:41.589Z,66
2023-05-22T11:33:48.181Z,66
2023-05-22T11:34:55.303Z,66
2023-05-22T11:36:02.342Z,66
2023-05-22T11:37:09.461Z,66
2023-05-22T11:38:16.542Z,66
2023-05-22T11:39:23.136Z,66
2023-05-22T11:40:30.301Z,66
2023-05-22T11:41:37.377Z,66
2023-05-22T11:42:44.486Z,66
2023-05-22T11:43:51.577Z,66
2023-05-22T11:44:58.170Z,66
2023-05-22T11:47:12.376Z,66
2023-05-22T11:48:19.517Z,66
2023-05-22T11:49:26.064Z,66
2023-05-22T11:50:42.357Z,66
2023-05-22T11:51:40.283Z,66
2023-05-22T11:52:47.453Z,67
2023-05-22T11:53:54.454Z,67
2023-05-22T11:55:01.388Z,67
2023-05-22T11:56:11.120Z,67
2023-05-22T11:57:15.811Z,67
2023-05-22T11:58:22.413Z,67
2023-05-22T11:59:29.533Z,67
2023-05-22T12:00:36.220Z,67
2023-05-22T12:01:43.159Z,67
2023-05-22T12:02:50.458Z,67
2023-05-22T12:03:57.528Z,67
2023-05-22T12:05:05.076Z,67
2023-05-22T12:06:11.094Z,67
2023-05-22T12:07:18.218Z,67
2023-05-22T12:08:25.354Z,67
2023-05-22T12:09:32.362Z,67
2023-05-22T12:10:39.754Z,67
2023-05-22T12:11:46.081Z,66
2023-05-22T12:12:53.167Z,66
2023-05-22T12:14:00.304Z,66
2023-05-22T12:15:07.547Z,66
2023-05-22T12:16:14.575Z,66
2023-05-22T12:17:21.093Z,66
2023-05-22T12:18:28.240Z,67
2023-05-22T12:19:35.373Z,67
2023-05-22T12:20:42.384Z,67
2023-05-22T12:21:49.557Z,66
2023-05-22T12:22:56.096Z,66
2023-05-22T12:24:03.216Z,66
2023-05-22T12:25:10.337Z,66
2023-05-22T12:26:17.495Z,66
2023-05-22T12:27:24.499Z,66
2023-05-22T12:28:31.110Z,66
2023-05-22T12:29:38.228Z,66
2023-05-22T12:30:45.330Z,65
2023-05-22T12:31:52.503Z,65
2023-05-22T12:32:59.646Z,65
2023-05-22T12:34:06.134Z,65
2023-05-22T12:35:13.207Z,65
2023-05-22T12:36:20.293Z,65
2023-05-22T12:37:27.461Z,65
2023-05-22T12:38:35.540Z,65
2023-05-22T12:39:41.153Z,64
2023-05-22T12:40:48.537Z,64
2023-05-22T12:41:55.345Z,64
2023-05-22T12:43:02.462Z,64
2023-05-22T12:44:09.552Z,65
2023-05-22T12:45:16.186Z,65
2023-05-22T12:46:23.369Z,65
2023-05-22T12:47:30.392Z,65
2023-05-22T12:48:37.465Z,65
2023-05-22T12:50:51.209Z,65
2023-05-22T12:51:58.328Z,65
2023-05-22T12:53:05.344Z,65
2023-05-22T12:54:12.473Z,65
2023-05-22T12:55:19.075Z,65
2023-05-22T12:56:26.180Z,65
2023-05-22T12:57:33.294Z,65
2023-05-22T12:58:40.348Z,65
2023-05-22T12:59:47.510Z,65
2023-05-22T13:00:54.031Z,65
2023-05-22T13:02:01.291Z,65
2023-05-22T13:03:08.392Z,65
2023-05-22T13:04:15.349Z,64
2023-05-22T13:05:22.609Z,64
2023-05-22T13:06:30.437Z,64
2023-05-22T13:07:36.178Z,64
2023-05-22T13:08:43.850Z,65
2023-05-22T13:09:50.361Z,65
2023-05-22T13:10:57.483Z,65
2023-05-22T13:12:04.137Z,64
2023-05-22T13:13:11.134Z,64
2023-05-22T13:14:18.353Z,64
2023-05-22T13:15:25.389Z,64
2023-05-22T13:16:32.539Z,64
2023-05-22T13:17:39.117Z,64
2023-05-22T13:18:46.272Z,64
2023-05-22T13:19:53.349Z,64
2023-05-22T13:21:00.471Z,64
2023-05-22T13:22:07.501Z,64
2023-05-22T13:23:14.062Z,64
2023-05-22T13:24:21.185Z,64
2023-05-22T13:25:28.303Z,64
2023-05-22T13:26:35.413Z,64
2023-05-22T13:27:42.493Z,64
2023-05-22T13:28:49.135Z,64
2023-05-22T13:29:56.207Z,64
2023-05-22T13:31:03.321Z,64
2023-05-22T13:32:10.380Z,64
2023-05-22T13:33:17.551Z,64
2023-05-22T13:34:24.171Z,64
2023-05-22T13:35:31.258Z,64
2023-05-22T13:36:38.313Z,64
2023-05-22T13:37:45.420Z,64
2023-05-22T13:38:52.539Z,64
2023-05-22T13:39:59.111Z,64
2023-05-22T13:41:06.260Z,64
2023-05-22T13:42:13.298Z,64
2023-05-22T13:43:20.394Z,64
2023-05-22T13:44:27.023Z,64
2023-05-22T13:45:34.089Z,64
2023-05-22T13:46:41.324Z,64
2023-05-22T13:47:48.416Z,64
2023-05-22T13:48:55.453Z,64
2023-05-22T13:50:02.083Z,64
2023-05-22T13:51:09.161Z,64
2023-05-22T13:52:16.258Z,64
2023-05-22T13:53:23.298Z,64
2023-05-22T13:54:30.413Z,65
2023-05-22T13:55:37.149Z,64
2023-05-22T13:56:44.131Z,64
2023-05-22T13:57:51.197Z,64
2023-05-22T13:58:58.389Z,64
2023-05-22T14:00:05.460Z,64
2023-05-22T14:01:12.042Z,64
2023-05-22T14:02:19.190Z,64
2023-05-22T14:03:26.262Z,64
2023-05-22T14:04:33.334Z,64
2023-05-22T14:05:40.737Z,65
2023-05-22T14:06:47.062Z,65
2023-05-22T14:07:54.192Z,65
2023-05-22T14:09:01.252Z,65
2023-05-22T14:10:08.379Z,65
2023-05-22T14:11:15.546Z,65
2023-05-22T14:12:23.104Z,65
2023-05-22T14:13:29.188Z,65
2023-05-22T14:14:36.291Z,65
2023-05-22T14:15:43.366Z,65
2023-05-22T14:16:50.512Z,65
2023-05-22T14:17:57.066Z,65
2023-05-22T14:19:04.169Z,65
2023-05-22T14:20:11.358Z,65
2023-05-22T14:21:18.418Z,65
2023-05-22T14:22:25.451Z,65
2023-05-22T14:23:32.116Z,65
2023-05-22T14:24:39.189Z,65
2023-05-22T14:25:46.306Z,66
2023-05-22T14:26:53.422Z,65
2023-05-22T14:28:00.480Z,66
2023-05-22T14:29:07.107Z,66
2023-05-22T14:30:14.183Z,66
2023-05-22T14:31:21.313Z,66
2023-05-22T14:32:28.424Z,66
2023-05-22T14:33:35.490Z,66
2023-05-22T14:34:42.079Z,66
2023-05-22T14:35:49.262Z,66
2023-05-22T14:36:56.287Z,66
2023-05-22T14:38:03.400Z,65
2023-05-22T14:39:10.573Z,65
2023-05-22T14:40:17.138Z,65
2023-05-22T14:41:24.200Z,66
2023-05-22T14:42:31.281Z,66
2023-05-22T14:43:38.401Z,66
2023-05-22T14:44:45.497Z,66
2023-05-22T14:45:52.190Z,66
2023-05-22T14:46:59.253Z,66
2023-05-22T14:48:06.772Z,66
2023-05-22T14:49:13.394Z,66
2023-05-22T14:50:20.768Z,66
2023-05-22T14:51:27.103Z,66
2023-05-22T14:52:34.168Z,66
2023-05-22T14:54:48.412Z,66
2023-05-22T14:55:54.991Z,66
2023-05-22T14:58:09.250Z,66
2023-05-22T14:59:16.325Z,66
2023-05-22T15:00:23.473Z,66
2023-05-22T15:01:30.178Z,66
2023-05-22T15:02:37.233Z,66
2023-05-22T15:03:44.225Z,66
2023-05-22T15:04:51.392Z,66
2023-05-22T15:05:58.504Z,66
2023-05-22T15:07:05.040Z,66
2023-05-22T15:08:12.098Z,66
2023-05-22T15:09:19.268Z,66
2023-05-22T15:10:26.344Z,66
2023-05-22T15:11:33.413Z,66
2023-05-22T15:12:40.115Z,66
2023-05-22T15:13:47.155Z,66
2023-05-22T15:14:54.209Z,66
2023-05-22T15:16:01.907Z,66
2023-05-22T15:17:08.480Z,66
2023-05-22T15:18:15.137Z,66
2023-05-22T15:19:22.208Z,66
2023-05-22T15:20:29.284Z,66
2023-05-22T15:21:36.357Z,66
2023-05-22T15:22:43.450Z,66
2023-05-22T15:23:50.054Z,66
2023-05-22T15:24:57.154Z,66
2023-05-22T15:26:04.331Z,66
2023-05-22T15:27:11.329Z,66
2023-05-22T15:28:18.474Z,66
2023-05-22T15:29:25.045Z,66
2023-05-22T15:30:32.140Z,66
2023-05-22T15:31:39.347Z,66
2023-05-22T15:32:46.427Z,66
2023-05-22T15:33:53.448Z,66
2023-05-22T15:35:00.137Z,66
2023-05-22T15:36:07.232Z,66
2023-05-22T15:37:14.286Z,66
2023-05-22T15:38:21.364Z,66
2023-05-22T15:39:28.501Z,66
2023-05-22T15:40:35.052Z,66
2023-05-22T15:41:48.819Z,66
2023-05-22T15:42:49.291Z,66
2023-05-22T15:43:56.369Z,66
2023-05-22T15:45:03.471Z,66
2023-05-22T15:46:11.147Z,66
2023-05-22T15:47:17.191Z,65
2023-05-22T15:48:24.286Z,65
2023-05-22T15:49:31.609Z,65
2023-05-22T15:50:38.761Z,65
2023-05-22T15:51:45.056Z,65
2023-05-22T15:52:52.169Z,65
2023-05-22T15:53:59.384Z,65
2023-05-22T15:55:06.408Z,66
2023-05-22T15:56:12.956Z,66
2023-05-22T15:57:20.101Z,66
2023-05-22T15:58:27.197Z,66
2023-05-22T15:59:34.324Z,66
2023-05-22T16:01:48.032Z,66
2023-05-22T16:02:55.224Z,66
2023-05-22T16:04:02.263Z,66
2023-05-22T16:05:09.310Z,66
2023-05-22T16:06:16.575Z,66
2023-05-22T16:07:23.082Z,66
2023-05-22T16:08:30.112Z,66
2023-05-22T16:09:37.240Z,66
2023-05-22T16:10:44.337Z,66
2023-05-22T16:11:51.418Z,66
2023-05-22T16:12:58.001Z,66
2023-05-22T16:14:05.103Z,66
2023-05-22T16:15:12.232Z,66
2023-05-22T16:16:19.367Z,66
2023-05-22T16:17:26.437Z,65
2023-05-22T16:18:32.992Z,65
2023-05-22T16:19:40.630Z,66
2023-05-22T16:20:47.230Z,66
2023-05-22T16:23:01.444Z,66
2023-05-22T16:24:08.060Z,65
2023-05-22T16:25:15.137Z,65
2023-05-22T16:26:22.232Z,65